Detall de PIREP

Printer-friendly versionPDF version

[2015/09/04 08:06:00]
Flight IATA:CT3401
Pilot Number:042
Company ICAO:CAT
Aircraft Type:B752/E
PAX:0
Aircraft Registration:CARGO
Departing Airport: BIKF
Destination Airport: LEBL
Alternate Airport:LEPA
Online: VATSIM
Route:CELLO AGORI OSBOX DEVOL CRK LEDGO UN160 INSUN UM142 BERAD UN490 TERPO UM616 TUPAR UM184 CNA UN863 AGN UN727 ROCAN UN859 PUMAL
Flight Level:F350
No Slew and time accel
No pause
Crash detect
Detect pilot in Cockpit between each 30 and 45 minutes
08:06 Zero fuel Weight: 200009 Lbs, Fuel Weight: 75403 Lbs
08:06 VATSIM:BIKF 040530Z 30009KT 9999 BKN010 07/06 Q1026
08:06 VATSIM:LEBL 040530Z 35005KT 9999 FEW010 20/17 Q1014 NOSIG
08:10 Parking Brakes off
08:17 Take-off
08:17 Take off Weight: 273499 Lbs
08:17 Wind: 299º @ 009 Knots Heading: 271º
08:17 POS N63º 59´ 06´´ W022º 38´ 20´´
08:17 Gear Up: 172 Knots
08:17 Flaps:3 at 172 Knots
08:18 Flaps:2 at 186 Knots
08:18 Flaps:1 at 201 Knots
08:19 Flaps:0 at 219 Knots
08:32 Wind:302º@040 Knots Heading: 153º Ground Speed: 507 Knots Altitude 26030 ft
08:36 TOC
08:36 Fuel Weight: 66531 Lb
08:47 Wind:335º@035 Knots Heading: 145º Ground Speed: 496 Knots Altitude 35324 ft
09:02 Wind:356º@034 Knots Heading: 146º Ground Speed: 491 Knots Altitude 35262 ft
09:17 Wind:019º@040 Knots Heading: 127º Ground Speed: 475 Knots Altitude 35265 ft
09:32 Wind:036º@051 Knots Heading: 149º Ground Speed: 483 Knots Altitude 35301 ft
09:47 Wind:040º@050 Knots Heading: 150º Ground Speed: 479 Knots Altitude 35321 ft
10:02 Wind:039º@044 Knots Heading: 145º Ground Speed: 474 Knots Altitude 35341 ft
10:17 Wind:029º@035 Knots Heading: 132º Ground Speed: 468 Knots Altitude 35282 ft
10:32 Wind:349º@022 Knots Heading: 149º Ground Speed: 483 Knots Altitude 35209 ft
10:47 Wind:307º@019 Knots Heading: 133º Ground Speed: 481 Knots Altitude 35200 ft
11:02 Wind:298º@019 Knots Heading: 139º Ground Speed: 481 Knots Altitude 35193 ft
11:17 Wind:244º@047 Knots Heading: 160º Ground Speed: 462 Knots Altitude 35167 ft
11:32 Wind:235º@075 Knots Heading: 138º Ground Speed: 479 Knots Altitude 35170 ft
11:32 TOD
11:32 Fuel Weight: 41111 Lb
11:47 Wind:241º@030 Knots Heading: 152º Ground Speed: 309 Knots Altitude 14360 ft
11:55 Flaps:2 at 187 Knots
11:56 Flaps:3 at 204 Knots
11:57 Gear Down: 166 Knots
11:58 Flaps:4 at 180 Knots
11:58 Flaps:5 at 179 Knots
11:58 Flaps:6 at 174 Knots
11:58 Flaps:5 at 167 Knots
11:58 Flaps:6 at 161 Knots
12:01 TouchDown:Rate -279 ft/min Speed: 147 Knots
12:01 VATSIM:LEBL 040936Z 10006KT 070V150 9999 RA FEW010 FEW020TCU FEW025CB BKN055 22/15 Q1017 BECMG 3000 TSRA
12:01 Land
12:01 Wind:094º@006 Knots
12:01 Heading: 243º
12:01 Flight Duration:03:44
12:01 Landing Weight: 237912 Lbs
12:01 POS N41º 17´ 16´´ E002º 05´ 26´´
12:09 Parking brakes on
12:09 Block to Block Duration: 03:59
12:09 Final Fuel: 36898 Lbls
12:09 Spent Fuel: 38505 Lbls
12:09 Flight Length: 1683 NM
12:09 TOD Land Length: 145 NM

Exportar CSV

Powered by Drupal - Modified by Danger4k